Villanueva del Ariscal, Spain
Current Conditions -  °F | °C
As of 6:30 PM on Wednesday 26 Nov 2014 (Local Time) from LEZL Reporting Station
Few Clouds Few Clouds  
Wind Chill: 61°   Ceiling: Unl
Heat Index: 61°   Visibility: 6mi
Dew Point: 54°   Wind: 2mph
Humidity: 77%   Direction: 170°S
Pressure: 29.8"   Gusts: NA
Location:  37.4°N, 6.14°W
Report Text: LEZL 261730Z 17002KT 9999 FEW037 16/12 Q1009 NOSIG
Loading
Personal Weather Stations






























Interactive Weather Map New forecast layout! Learn more

10-Day Weather Forecast

Advertisements
Track Severe Weather on mobile